createdAt,value
2023-03-15T00:00:47.503Z,96875.22
2023-03-15T00:03:17.041Z,96865.25
2023-03-15T00:05:45.595Z,96893.88
2023-03-15T00:08:12.569Z,96874.22
2023-03-15T00:10:43.278Z,96896.94
2023-03-15T00:13:11.056Z,96893.16
2023-03-15T00:15:48.948Z,96883.41
2023-03-15T00:18:16.807Z,96894.13
2023-03-15T00:20:44.000Z,96898.41
2023-03-15T00:23:11.279Z,96898.09
2023-03-15T00:25:38.354Z,96909.62
2023-03-15T00:28:05.704Z,96903.81
2023-03-15T00:30:32.994Z,96924.91
2023-03-15T00:32:59.863Z,96916.69
2023-03-15T00:35:26.562Z,96913.56
2023-03-15T00:37:56.976Z,96902.69
2023-03-15T00:40:24.595Z,96914.34
2023-03-15T00:42:51.800Z,96901.50
2023-03-15T00:45:22.316Z,96915.84
2023-03-15T00:47:50.760Z,96915.22
2023-03-15T00:50:17.927Z,96924.69
2023-03-15T00:52:44.855Z,96921.28
2023-03-15T00:55:14.059Z,96915.66
2023-03-15T00:57:43.714Z,96925.69
2023-03-15T01:00:14.417Z,96935.44
2023-03-15T01:02:41.953Z,96927.16
2023-03-15T01:05:10.128Z,96903.62
2023-03-15T01:07:37.049Z,96932.88
2023-03-15T01:10:05.863Z,96926.78
2023-03-15T01:12:34.090Z,96926.44
2023-03-15T01:15:02.330Z,96934.41
2023-03-15T01:17:29.254Z,96933.78
2023-03-15T01:19:56.208Z,96937.87
2023-03-15T01:22:23.115Z,96912.94
2023-03-15T01:24:50.119Z,96921.37
2023-03-15T01:27:17.031Z,96929.09
2023-03-15T01:29:43.895Z,96927.22
2023-03-15T01:32:10.871Z,96923.03
2023-03-15T01:34:37.911Z,96916.22
2023-03-15T01:37:04.637Z,96897.66
2023-03-15T01:39:31.983Z,96903.19
2023-03-15T01:41:58.860Z,96898.78
2023-03-15T01:44:51.362Z,96907.03
2023-03-15T01:47:18.578Z,96926.19
2023-03-15T01:49:48.282Z,96909.59
2023-03-15T01:52:22.245Z,96904.03
2023-03-15T01:55:11.360Z,96910.25
2023-03-15T01:57:51.078Z,96908.31
2023-03-15T02:00:20.084Z,96901.31
2023-03-15T02:02:53.664Z,96893.75
2023-03-15T02:05:32.626Z,96890.03
2023-03-15T02:08:00.154Z,96885.81
2023-03-15T02:10:32.051Z,96890.34
2023-03-15T02:12:59.869Z,96894.00
2023-03-15T02:15:27.245Z,96891.34
2023-03-15T02:17:54.356Z,96885.09
2023-03-15T02:20:40.206Z,96886.38
2023-03-15T02:23:09.295Z,96892.69
2023-03-15T02:26:33.511Z,96904.38
2023-03-15T02:29:01.382Z,96897.78
2023-03-15T02:31:28.738Z,96904.38
2023-03-15T02:33:55.975Z,96897.44
2023-03-15T02:36:26.303Z,96899.47
2023-03-15T02:38:53.981Z,96904.59
2023-03-15T02:41:26.789Z,96899.06
2023-03-15T02:43:56.335Z,96902.06
2023-03-15T02:46:23.391Z,96908.53
2023-03-15T02:48:54.234Z,96899.31
2023-03-15T02:51:24.038Z,96897.97
2023-03-15T02:53:51.041Z,96913.22
2023-03-15T02:56:17.962Z,96910.41
2023-03-15T02:58:48.022Z,96892.59
2023-03-15T03:01:16.026Z,96889.97
2023-03-15T03:03:44.664Z,96892.44
2023-03-15T03:06:14.863Z,96885.59
2023-03-15T03:08:41.764Z,96899.84
2023-03-15T03:11:08.651Z,96887.75
2023-03-15T03:13:35.528Z,96876.31
2023-03-15T03:16:02.216Z,96877.06
2023-03-15T03:18:30.490Z,96891.59
2023-03-15T03:20:58.477Z,96883.22
2023-03-15T03:23:26.515Z,96880.62
2023-03-15T03:25:54.540Z,96893.59
2023-03-15T03:28:22.340Z,96898.06
2023-03-15T03:30:49.265Z,96914.72
2023-03-15T03:33:16.328Z,96915.09
2023-03-15T03:35:43.229Z,96915.25
2023-03-15T03:38:11.097Z,96931.28
2023-03-15T03:40:40.647Z,96924.53
2023-03-15T03:43:08.748Z,96940.56
2023-03-15T03:45:36.077Z,96936.37
2023-03-15T03:48:03.005Z,96962.66
2023-03-15T03:50:29.892Z,96967.34
2023-03-15T03:52:56.767Z,96959.06
2023-03-15T03:55:25.350Z,96978.19
2023-03-15T03:57:53.306Z,96986.94
2023-03-15T04:00:20.611Z,96994.91
2023-03-15T04:02:47.633Z,96994.41
2023-03-15T04:05:14.547Z,97001.62
2023-03-15T04:07:41.750Z,96997.81
2023-03-15T04:10:09.252Z,97011.69
2023-03-15T04:12:36.218Z,97004.75
2023-03-15T04:15:03.589Z,97004.09
2023-03-15T04:17:30.646Z,97005.81
2023-03-15T04:19:58.186Z,96988.88
2023-03-15T04:22:25.196Z,97004.25
2023-03-15T04:24:52.032Z,97008.81
2023-03-15T04:27:18.774Z,96993.44
2023-03-15T04:29:45.653Z,96984.47
2023-03-15T04:32:12.353Z,97004.31
2023-03-15T04:34:39.330Z,97002.62
2023-03-15T04:37:06.577Z,97008.09
2023-03-15T04:39:33.542Z,97000.75
2023-03-15T04:42:00.427Z,96992.22
2023-03-15T04:44:27.365Z,96999.34
2023-03-15T04:46:55.346Z,96983.97
2023-03-15T04:49:22.624Z,96991.94
2023-03-15T04:51:49.533Z,96983.75
2023-03-15T04:54:16.447Z,96979.50
2023-03-15T04:56:43.114Z,96980.97
2023-03-15T04:59:11.356Z,97001.91
2023-03-15T05:01:38.340Z,97002.44
2023-03-15T05:04:05.369Z,97000.91
2023-03-15T05:06:32.268Z,97007.56
2023-03-15T05:08:59.211Z,97008.97
2023-03-15T05:11:26.472Z,97019.59
2023-03-15T05:13:53.725Z,97018.94
2023-03-15T05:16:20.719Z,96974.78
2023-03-15T05:18:47.613Z,97017.72
2023-03-15T05:21:14.571Z,97010.09
2023-03-15T05:23:42.181Z,97032.16
2023-03-15T05:26:09.085Z,97029.44
2023-03-15T05:28:35.997Z,97026.97
2023-03-15T05:31:02.933Z,97020.25
2023-03-15T05:33:29.873Z,97031.75
2023-03-15T05:35:56.852Z,97039.44
2023-03-15T05:38:27.016Z,97047.59
2023-03-15T05:40:54.748Z,97056.72
2023-03-15T05:43:22.018Z,97057.06
2023-03-15T05:45:49.240Z,97033.56
2023-03-15T05:48:16.990Z,97042.97
2023-03-15T05:50:43.895Z,97046.03
2023-03-15T05:53:10.990Z,97069.69
2023-03-15T05:55:38.717Z,97060.72
2023-03-15T05:58:06.495Z,97048.00
2023-03-15T06:00:33.788Z,97044.94
2023-03-15T06:03:00.747Z,97054.69
2023-03-15T06:05:27.630Z,97060.72
2023-03-15T06:07:54.533Z,97052.44
2023-03-15T06:10:21.395Z,97074.28
2023-03-15T06:12:48.173Z,97081.87
2023-03-15T06:15:15.132Z,97070.78
2023-03-15T06:17:42.022Z,97071.22
2023-03-15T06:20:09.594Z,97074.81
2023-03-15T06:22:36.508Z,97071.84
2023-03-15T06:25:03.730Z,97076.34
2023-03-15T06:27:30.569Z,97087.34
2023-03-15T06:29:57.658Z,97099.03
2023-03-15T06:32:24.679Z,97088.94
2023-03-15T06:34:51.708Z,97092.00
2023-03-15T06:37:29.088Z,97112.19
2023-03-15T06:39:59.684Z,97096.75
2023-03-15T06:42:26.548Z,97086.12
2023-03-15T06:44:53.274Z,97097.87
2023-03-15T06:47:20.145Z,97103.81
2023-03-15T06:49:50.514Z,97102.75
2023-03-15T06:52:17.942Z,97112.81
2023-03-15T06:54:44.925Z,97106.38
2023-03-15T06:57:12.062Z,97117.72
2023-03-15T06:59:38.995Z,97116.69
2023-03-15T07:02:05.875Z,97129.97
2023-03-15T07:04:32.598Z,97135.31
2023-03-15T07:06:59.471Z,97129.44
2023-03-15T07:09:26.224Z,97128.13
2023-03-15T07:11:53.087Z,97129.41
2023-03-15T07:14:19.741Z,97126.03
2023-03-15T07:16:48.254Z,97138.56
2023-03-15T07:19:15.267Z,97144.63
2023-03-15T07:21:42.131Z,97146.12
2023-03-15T07:24:08.789Z,97128.63
2023-03-15T07:26:35.651Z,97122.19
2023-03-15T07:29:02.363Z,97117.78
2023-03-15T07:31:29.260Z,97122.72
2023-03-15T07:33:56.112Z,97122.16
2023-03-15T07:36:22.803Z,97132.72
2023-03-15T07:38:49.645Z,97134.59
2023-03-15T07:41:16.367Z,97138.88
2023-03-15T07:43:43.215Z,97151.84
2023-03-15T07:46:10.330Z,97140.50
2023-03-15T07:48:37.271Z,97152.00
2023-03-15T07:51:05.087Z,97156.63
2023-03-15T07:53:32.113Z,97150.47
2023-03-15T07:55:59.103Z,97149.94
2023-03-15T07:58:26.040Z,97161.69
2023-03-15T08:00:56.204Z,97160.75
2023-03-15T08:03:24.422Z,97165.53
2023-03-15T08:05:51.705Z,97157.25
2023-03-15T08:08:18.731Z,97158.41
2023-03-15T08:10:46.379Z,97175.88
2023-03-15T08:13:13.845Z,97181.25
2023-03-15T08:15:41.784Z,97169.56
2023-03-15T08:18:08.691Z,97173.25
2023-03-15T08:20:35.566Z,97182.66
2023-03-15T08:23:02.291Z,97192.28
2023-03-15T08:25:29.900Z,97192.41
2023-03-15T08:27:56.982Z,97191.84
2023-03-15T08:30:24.271Z,97190.81
2023-03-15T08:32:52.729Z,97189.78
2023-03-15T08:35:21.587Z,97179.50
2023-03-15T08:37:48.766Z,97194.66
2023-03-15T08:40:19.197Z,97193.59
2023-03-15T08:42:46.176Z,97199.00
2023-03-15T08:45:13.144Z,97187.72
2023-03-15T08:47:40.002Z,97193.81
2023-03-15T08:50:08.383Z,97204.63
2023-03-15T08:52:35.379Z,97197.34
2023-03-15T08:55:02.520Z,97178.81
2023-03-15T08:57:29.904Z,97198.59
2023-03-15T08:59:57.768Z,97204.97
2023-03-15T09:02:24.771Z,97190.47
2023-03-15T09:04:53.434Z,97198.16
2023-03-15T09:07:21.993Z,97198.75
2023-03-15T09:09:48.979Z,97194.72
2023-03-15T09:12:18.854Z,97187.13
2023-03-15T09:14:45.675Z,97182.00
2023-03-15T09:17:12.431Z,97187.31
2023-03-15T09:19:39.864Z,97192.56
2023-03-15T09:22:16.264Z,97183.56
2023-03-15T09:24:44.041Z,97181.19
2023-03-15T09:27:11.951Z,97178.84
2023-03-15T09:29:39.149Z,97176.22
2023-03-15T09:32:06.293Z,97196.84
2023-03-15T09:34:39.944Z,97177.19
2023-03-15T09:37:09.036Z,97200.47
2023-03-15T09:39:35.910Z,97189.41
2023-03-15T09:42:04.749Z,97204.97
2023-03-15T09:44:39.494Z,97214.53
2023-03-15T09:47:28.076Z,97207.88
2023-03-15T09:50:09.992Z,97206.50
2023-03-15T09:52:47.530Z,97222.75
2023-03-15T09:55:23.640Z,97226.56
2023-03-15T09:57:58.948Z,97232.63
2023-03-15T10:00:35.054Z,97238.66
2023-03-15T10:03:07.393Z,97222.69
2023-03-15T10:05:50.159Z,97232.78
2023-03-15T10:08:18.598Z,97215.06
2023-03-15T10:11:23.287Z,97227.37
2023-03-15T10:14:05.282Z,97245.25
2023-03-15T10:16:40.860Z,97243.38
2023-03-15T10:19:32.487Z,97274.19
2023-03-15T10:22:11.632Z,97270.25
2023-03-15T10:25:05.280Z,97273.78
2023-03-15T10:27:37.793Z,97273.37
2023-03-15T10:30:24.359Z,97300.25
2023-03-15T10:33:18.386Z,97302.63
2023-03-15T10:35:45.314Z,97300.94
2023-03-15T10:38:20.988Z,97307.53
2023-03-15T10:40:53.342Z,97306.56
2023-03-15T10:43:39.884Z,97322.66
2023-03-15T10:46:12.175Z,97320.22
2023-03-15T10:49:00.285Z,97315.63
2023-03-15T10:51:32.991Z,97320.81
2023-03-15T10:54:07.750Z,97340.09
2023-03-15T10:56:56.482Z,97335.19
2023-03-15T10:59:25.576Z,97356.59
2023-03-15T11:01:55.277Z,97350.44
2023-03-15T11:04:34.209Z,97352.72
2023-03-15T11:07:03.713Z,97348.13
2023-03-15T11:09:42.218Z,97358.63
2023-03-15T11:12:11.390Z,97339.56
2023-03-15T11:14:44.229Z,97354.13
2023-03-15T11:17:22.461Z,97330.00
2023-03-15T11:20:10.094Z,97318.28
2023-03-15T11:22:36.962Z,97331.00
2023-03-15T11:25:03.795Z,97331.06
2023-03-15T11:27:31.972Z,97351.38
2023-03-15T11:29:59.972Z,97336.47
2023-03-15T11:32:29.402Z,97331.00
2023-03-15T11:35:06.174Z,97321.03
2023-03-15T11:38:15.244Z,97316.16
2023-03-15T11:40:49.402Z,97330.31
2023-03-15T11:43:20.068Z,97340.37
2023-03-15T11:46:05.256Z,97328.47
2023-03-15T11:48:43.313Z,97337.94
2023-03-15T11:51:11.856Z,97337.12
2023-03-15T11:54:04.280Z,97332.91
2023-03-15T11:56:58.611Z,97335.44
2023-03-15T11:59:33.736Z,97343.34
2023-03-15T12:02:15.540Z,97326.00
2023-03-15T12:04:46.137Z,97319.38
2023-03-15T12:07:19.058Z,97324.88
2023-03-15T12:10:06.103Z,97326.50
2023-03-15T12:12:32.959Z,97325.13
2023-03-15T12:15:04.139Z,97336.09
2023-03-15T12:17:30.947Z,97340.56
2023-03-15T12:20:21.206Z,97342.69
2023-03-15T12:22:52.048Z,97348.09
2023-03-15T12:25:29.830Z,97351.25
2023-03-15T12:27:58.048Z,97350.78
2023-03-15T12:30:33.832Z,97354.41
2023-03-15T12:33:02.514Z,97345.88
2023-03-15T12:35:34.225Z,97353.97
2023-03-15T12:38:01.806Z,97352.53
2023-03-15T12:40:28.632Z,97351.34
2023-03-15T12:42:57.488Z,97355.56
2023-03-15T12:45:27.555Z,97348.00
2023-03-15T12:47:54.397Z,97358.94
2023-03-15T12:50:39.334Z,97362.75
2023-03-15T12:53:23.656Z,97354.09
2023-03-15T12:55:54.126Z,97374.16
2023-03-15T12:58:36.110Z,97365.72
2023-03-15T13:01:05.852Z,97383.12
2023-03-15T13:03:35.888Z,97375.62
2023-03-15T13:06:27.297Z,97402.50
2023-03-15T13:09:04.932Z,97385.50
2023-03-15T13:11:49.041Z,97395.06
2023-03-15T13:14:22.589Z,97404.97
2023-03-15T13:17:28.525Z,97407.94
2023-03-15T13:20:39.346Z,97412.41
2023-03-15T13:23:23.627Z,97410.94
2023-03-15T13:26:00.392Z,97415.09
2023-03-15T13:28:39.932Z,97416.47
2023-03-15T13:31:19.289Z,97412.13
2023-03-15T13:34:00.297Z,97437.12
2023-03-15T13:36:46.162Z,97413.50
2023-03-15T13:39:31.327Z,97426.81
2023-03-15T13:42:06.039Z,97421.47
2023-03-15T13:44:34.190Z,97428.00
2023-03-15T13:47:01.147Z,97429.88
2023-03-15T13:49:32.877Z,97443.09
2023-03-15T13:52:02.424Z,97456.75
2023-03-15T13:54:33.230Z,97459.03
2023-03-15T13:57:07.512Z,97454.03
2023-03-15T13:59:57.732Z,97424.41
2023-03-15T14:02:47.516Z,97445.28
2023-03-15T14:05:27.546Z,97437.78
2023-03-15T14:08:04.571Z,97444.97
2023-03-15T14:10:36.119Z,97451.59
2023-03-15T14:13:21.699Z,97451.78
2023-03-15T14:15:48.682Z,97462.53
2023-03-15T14:18:24.040Z,97462.56
2023-03-15T14:21:02.836Z,97472.75
2023-03-15T14:23:30.742Z,97478.63
2023-03-15T14:26:12.583Z,97478.44
2023-03-15T14:28:40.463Z,97468.63
2023-03-15T14:31:07.434Z,97475.59
2023-03-15T14:33:40.367Z,97466.22
2023-03-15T14:36:21.424Z,97484.06
2023-03-15T14:38:54.084Z,97479.78
2023-03-15T14:41:23.912Z,97490.22
2023-03-15T14:43:51.028Z,97475.72
2023-03-15T14:46:18.045Z,97498.38
2023-03-15T14:48:45.137Z,97485.87
2023-03-15T14:51:20.717Z,97510.53
2023-03-15T14:53:50.006Z,97511.56
2023-03-15T14:56:19.326Z,97502.75
2023-03-15T14:58:46.716Z,97512.91
2023-03-15T15:01:16.856Z,97524.37
2023-03-15T15:03:54.086Z,97524.59
2023-03-15T15:06:22.002Z,97527.72
2023-03-15T15:08:49.954Z,97530.63
2023-03-15T15:11:16.844Z,97545.44
2023-03-15T15:13:43.679Z,97544.72
2023-03-15T15:16:10.489Z,97551.47
2023-03-15T15:18:37.916Z,97548.19
2023-03-15T15:21:22.149Z,97556.16
2023-03-15T15:23:58.579Z,97568.47
2023-03-15T15:26:28.062Z,97560.25
2023-03-15T15:28:55.424Z,97557.06
2023-03-15T15:31:24.102Z,97568.88
2023-03-15T15:33:52.427Z,97560.50
2023-03-15T15:36:25.246Z,97567.44
2023-03-15T15:38:52.324Z,97560.53
2023-03-15T15:41:24.056Z,97566.53
2023-03-15T15:43:51.290Z,97591.63
2023-03-15T15:46:18.500Z,97579.50
2023-03-15T15:48:45.574Z,97593.78
2023-03-15T15:51:39.040Z,97590.69
2023-03-15T15:54:06.309Z,97587.53
2023-03-15T15:56:35.593Z,97596.81
2023-03-15T15:59:04.682Z,97609.41
2023-03-15T16:01:32.224Z,97609.50
2023-03-15T16:04:00.348Z,97596.47
2023-03-15T16:06:27.701Z,97602.72
2023-03-15T16:08:55.031Z,97617.63
2023-03-15T16:11:22.116Z,97628.00
2023-03-15T16:13:51.249Z,97610.00
2023-03-15T16:16:18.902Z,97622.47
2023-03-15T16:18:46.064Z,97636.66
2023-03-15T16:21:25.737Z,97631.34
2023-03-15T16:23:57.520Z,97645.13
2023-03-15T16:26:24.527Z,97636.34
2023-03-15T16:28:52.205Z,97633.59
2023-03-15T16:31:22.361Z,97639.31
2023-03-15T16:33:50.250Z,97645.41
2023-03-15T16:36:22.016Z,97643.94
2023-03-15T16:38:49.418Z,97650.41
2023-03-15T16:41:17.438Z,97666.47
2023-03-15T16:43:46.243Z,97655.47
2023-03-15T16:46:16.023Z,97667.28
2023-03-15T16:48:43.236Z,97675.38
2023-03-15T16:51:13.839Z,97670.22
2023-03-15T16:53:44.854Z,97677.72
2023-03-15T16:56:15.629Z,97686.72
2023-03-15T16:58:43.926Z,97687.03
2023-03-15T17:01:11.639Z,97705.13
2023-03-15T17:03:38.632Z,97695.28
2023-03-15T17:06:06.179Z,97703.84
2023-03-15T17:08:33.248Z,97714.72
2023-03-15T17:11:00.326Z,97721.66
2023-03-15T17:13:29.294Z,97722.72
2023-03-15T17:15:56.235Z,97723.94
2023-03-15T17:18:24.277Z,97728.44
2023-03-15T17:20:51.305Z,97732.78
2023-03-15T17:23:21.360Z,97738.56
2023-03-15T17:25:48.888Z,97750.00
2023-03-15T17:28:15.804Z,97749.72
2023-03-15T17:30:42.818Z,97738.78
2023-03-15T17:33:09.782Z,97754.00
2023-03-15T17:35:41.159Z,97750.59
2023-03-15T17:38:21.916Z,97750.34
2023-03-15T17:40:48.978Z,97753.53
2023-03-15T17:43:17.157Z,97762.16
2023-03-15T17:45:44.354Z,97767.03
2023-03-15T17:48:11.490Z,97768.81
2023-03-15T17:50:38.744Z,97766.91
2023-03-15T17:53:18.454Z,97771.31
2023-03-15T17:55:46.703Z,97769.94
2023-03-15T17:58:22.462Z,97780.69
2023-03-15T18:00:54.810Z,97778.47
2023-03-15T18:03:22.526Z,97777.00
2023-03-15T18:05:49.741Z,97775.75
2023-03-15T18:08:19.255Z,97787.72
2023-03-15T18:10:46.951Z,97786.44
2023-03-15T18:13:17.933Z,97784.41
2023-03-15T18:15:49.939Z,97792.81
2023-03-15T18:18:17.300Z,97795.22
2023-03-15T18:20:45.541Z,97798.44
2023-03-15T18:23:14.604Z,97788.13
2023-03-15T18:25:41.842Z,97801.44
2023-03-15T18:28:09.071Z,97804.75
2023-03-15T18:30:35.997Z,97811.53
2023-03-15T18:33:04.386Z,97802.50
2023-03-15T18:35:33.992Z,97808.50
2023-03-15T18:38:01.072Z,97816.50
2023-03-15T18:40:29.747Z,97821.16
2023-03-15T18:42:57.376Z,97818.50
2023-03-15T18:45:25.812Z,97831.88
2023-03-15T18:47:52.897Z,97825.59
2023-03-15T18:50:21.562Z,97841.97
2023-03-15T18:52:48.740Z,97823.91
2023-03-15T18:55:17.332Z,97827.16
2023-03-15T18:57:46.403Z,97839.97
2023-03-15T19:00:17.128Z,97835.38
2023-03-15T19:02:46.286Z,97839.97
2023-03-15T19:05:14.836Z,97849.97
2023-03-15T19:07:42.136Z,97862.34
2023-03-15T19:10:13.506Z,97858.78
2023-03-15T19:12:41.157Z,97859.84
2023-03-15T19:15:11.964Z,97862.31
2023-03-15T19:17:39.431Z,97868.81
2023-03-15T19:20:07.882Z,97879.44
2023-03-15T19:22:35.328Z,97884.00
2023-03-15T19:25:02.249Z,97883.53
2023-03-15T19:27:29.130Z,97872.50
2023-03-15T19:29:56.055Z,97888.38
2023-03-15T19:32:23.135Z,97896.56
2023-03-15T19:34:50.202Z,97887.88
2023-03-15T19:37:17.235Z,97899.03
2023-03-15T19:39:44.464Z,97893.00
2023-03-15T19:42:11.642Z,97910.63
2023-03-15T19:44:38.629Z,97906.63
2023-03-15T19:47:05.648Z,97911.53
2023-03-15T19:49:32.646Z,97915.28
2023-03-15T19:51:59.558Z,97921.59
2023-03-15T19:54:26.431Z,97927.25
2023-03-15T19:56:54.186Z,97932.22
2023-03-15T19:59:21.038Z,97932.84
2023-03-15T20:01:47.742Z,97926.06
2023-03-15T20:04:14.746Z,97943.09
2023-03-15T20:06:41.702Z,97937.38
2023-03-15T20:09:08.978Z,97945.56
2023-03-15T20:11:35.887Z,97945.22
2023-03-15T20:14:02.832Z,97952.97
2023-03-15T20:16:29.902Z,97959.56
2023-03-15T20:18:57.124Z,97952.06
2023-03-15T20:21:24.035Z,97951.78
2023-03-15T20:23:50.775Z,97963.78
2023-03-15T20:26:18.535Z,97957.47
2023-03-15T20:28:47.273Z,97961.88
2023-03-15T20:31:16.313Z,97966.59
2023-03-15T20:33:44.446Z,97974.47
2023-03-15T20:36:11.677Z,97968.06
2023-03-15T20:38:38.669Z,97979.03
2023-03-15T20:41:06.359Z,97983.94
2023-03-15T20:43:33.630Z,97978.34
2023-03-15T20:46:02.279Z,97979.38
2023-03-15T20:48:31.101Z,97983.44
2023-03-15T20:50:58.523Z,97984.34
2023-03-15T20:53:26.023Z,97985.19
2023-03-15T20:55:52.961Z,97978.66
2023-03-15T20:58:19.868Z,97983.50
2023-03-15T21:00:46.972Z,97974.19
2023-03-15T21:03:15.180Z,97984.38
2023-03-15T21:05:43.770Z,97982.28
2023-03-15T21:08:11.520Z,97993.00
2023-03-15T21:10:38.913Z,97995.78
2023-03-15T21:13:10.327Z,97994.28
2023-03-15T21:15:46.713Z,97993.97
2023-03-15T21:18:15.106Z,98001.00
2023-03-15T21:20:42.137Z,98003.06
2023-03-15T21:23:09.696Z,98004.09
2023-03-15T21:25:37.126Z,97999.22
2023-03-15T21:28:04.575Z,98000.25
2023-03-15T21:30:32.228Z,97998.72
2023-03-15T21:32:59.308Z,98015.28
2023-03-15T21:38:59.986Z,98011.50
2023-03-15T21:41:26.906Z,98016.19
2023-03-15T21:43:53.758Z,98020.28
2023-03-15T21:46:20.574Z,98014.56
2023-03-15T21:48:47.588Z,98014.50
2023-03-15T21:51:14.860Z,98003.34
2023-03-15T21:53:41.842Z,98007.44
2023-03-15T21:56:08.979Z,98006.69
2023-03-15T21:58:35.867Z,98002.66
2023-03-15T22:01:08.004Z,98002.94
2023-03-15T22:03:36.424Z,98001.66
2023-03-15T22:06:03.693Z,98001.34
2023-03-15T22:08:30.909Z,98010.63
2023-03-15T22:10:58.919Z,98005.88
2023-03-15T22:13:27.523Z,98013.25
2023-03-15T22:15:54.520Z,98007.75
2023-03-15T22:18:21.512Z,97996.63
2023-03-15T22:20:49.319Z,98000.34
2023-03-15T22:23:16.267Z,97994.53
2023-03-15T22:29:47.353Z,98007.69
2023-03-15T22:36:40.062Z,97994.50
2023-03-15T22:39:07.821Z,98012.00
2023-03-15T22:41:35.385Z,98014.09
2023-03-15T22:44:02.279Z,98013.81
2023-03-15T22:46:34.873Z,98020.66
2023-03-15T22:49:02.205Z,98017.97
2023-03-15T22:51:29.111Z,98018.97
2023-03-15T22:53:55.973Z,98019.75
2023-03-15T22:56:22.672Z,98021.66
2023-03-15T22:58:49.576Z,98020.41
2023-03-15T23:01:16.498Z,98030.03
2023-03-15T23:03:43.558Z,98032.22
2023-03-15T23:06:10.411Z,98035.53
2023-03-15T23:08:37.112Z,98033.94
2023-03-15T23:11:04.393Z,98032.00
2023-03-15T23:13:31.395Z,98030.12
2023-03-15T23:22:38.746Z,98023.75
2023-03-15T23:25:54.096Z,98033.28
2023-03-15T23:28:22.443Z,98036.31
2023-03-15T23:30:49.286Z,98021.19
2023-03-15T23:33:16.430Z,98024.75
2023-03-15T23:35:43.648Z,98024.41
2023-03-15T23:38:10.545Z,98035.37
2023-03-15T23:40:37.555Z,98028.47
2023-03-15T23:43:04.530Z,98032.28
2023-03-15T23:45:31.472Z,98033.81
2023-03-15T23:47:58.931Z,98032.47
2023-03-15T23:50:26.664Z,98035.22
2023-03-15T23:52:54.997Z,98039.22
2023-03-15T23:55:22.534Z,98035.66
2023-03-15T23:57:49.637Z,98031.16
